sensor_id;sensor_type;location;lat;lon;timestamp;P1;durP1;ratioP1;P2;durP2;ratioP2
46881;SDS011;44112;38.408;-122.974;2022-07-29T00:01:30;7.05;;;3.15;;
46881;SDS011;44112;38.408;-122.974;2022-07-29T00:03:57;4.70;;;2.50;;
46881;SDS011;44112;38.408;-122.974;2022-07-29T00:06:24;7.07;;;2.80;;
46881;SDS011;44112;38.408;-122.974;2022-07-29T00:08:51;7.45;;;3.10;;
46881;SDS011;44112;38.408;-122.974;2022-07-29T00:11:17;8.85;;;2.65;;
46881;SDS011;44112;38.408;-122.974;2022-07-29T00:13:44;7.15;;;2.60;;
46881;SDS011;44112;38.408;-122.974;2022-07-29T00:16:10;7.88;;;2.90;;
46881;SDS011;44112;38.408;-122.974;2022-07-29T00:18:38;8.82;;;3.08;;
46881;SDS011;44112;38.408;-122.974;2022-07-29T00:21:04;6.38;;;3.15;;
46881;SDS011;44112;38.408;-122.974;2022-07-29T00:23:31;6.72;;;2.95;;
46881;SDS011;44112;38.408;-122.974;2022-07-29T00:25:59;7.43;;;3.17;;
46881;SDS011;44112;38.408;-122.974;2022-07-29T00:28:26;7.03;;;3.20;;
46881;SDS011;44112;38.408;-122.974;2022-07-29T00:30:52;6.30;;;3.00;;
46881;SDS011;44112;38.408;-122.974;2022-07-29T00:33:19;6.38;;;3.03;;
46881;SDS011;44112;38.408;-122.974;2022-07-29T00:35:47;8.70;;;2.95;;
46881;SDS011;44112;38.408;-122.974;2022-07-29T00:38:14;8.73;;;3.38;;
46881;SDS011;44112;38.408;-122.974;2022-07-29T00:40:42;6.93;;;2.97;;
46881;SDS011;44112;38.408;-122.974;2022-07-29T00:43:11;8.85;;;3.40;;
46881;SDS011;44112;38.408;-122.974;2022-07-29T00:45:39;5.60;;;2.60;;
46881;SDS011;44112;38.408;-122.974;2022-07-29T00:48:08;6.43;;;3.05;;
46881;SDS011;44112;38.408;-122.974;2022-07-29T00:50:36;6.93;;;3.03;;
46881;SDS011;44112;38.408;-122.974;2022-07-29T00:53:03;7.78;;;3.17;;
46881;SDS011;44112;38.408;-122.974;2022-07-29T00:55:31;7.88;;;3.05;;
46881;SDS011;44112;38.408;-122.974;2022-07-29T00:57:58;9.23;;;3.50;;
46881;SDS011;44112;38.408;-122.974;2022-07-29T01:00:26;10.88;;;3.33;;
46881;SDS011;44112;38.408;-122.974;2022-07-29T01:02:54;9.80;;;3.22;;
46881;SDS011;44112;38.408;-122.974;2022-07-29T01:05:22;9.45;;;3.17;;
46881;SDS011;44112;38.408;-122.974;2022-07-29T01:07:52;12.13;;;4.10;;
46881;SDS011;44112;38.408;-122.974;2022-07-29T01:10:22;17.63;;;3.88;;
46881;SDS011;44112;38.408;-122.974;2022-07-29T01:12:51;10.35;;;3.42;;
46881;SDS011;44112;38.408;-122.974;2022-07-29T01:15:18;11.10;;;3.10;;
46881;SDS011;44112;38.408;-122.974;2022-07-29T01:26:23;9.95;;;3.25;;
46881;SDS011;44112;38.408;-122.974;2022-07-29T01:29:18;9.45;;;3.20;;
46881;SDS011;44112;38.408;-122.974;2022-07-29T01:37:26;10.10;;;3.42;;
46881;SDS011;44112;38.408;-122.974;2022-07-29T01:39:56;9.95;;;3.20;;
46881;SDS011;44112;38.408;-122.974;2022-07-29T01:42:58;10.60;;;3.97;;
46881;SDS011;44112;38.408;-122.974;2022-07-29T01:45:37;9.15;;;3.45;;
46881;SDS011;44112;38.408;-122.974;2022-07-29T01:48:17;9.85;;;4.25;;
46881;SDS011;44112;38.408;-122.974;2022-07-29T01:51:04;9.20;;;3.38;;
46881;SDS011;44112;38.408;-122.974;2022-07-29T01:56:31;13.13;;;3.85;;
46881;SDS011;44112;38.408;-122.974;2022-07-29T01:59:01;8.43;;;3.53;;
46881;SDS011;44112;38.408;-122.974;2022-07-29T02:01:30;7.22;;;3.35;;
46881;SDS011;44112;38.408;-122.974;2022-07-29T02:03:59;11.10;;;3.80;;
46881;SDS011;44112;38.408;-122.974;2022-07-29T02:06:30;14.80;;;3.90;;
46881;SDS011;44112;38.408;-122.974;2022-07-29T02:08:59;13.15;;;3.90;;
46881;SDS011;44112;38.408;-122.974;2022-07-29T02:11:27;11.52;;;4.22;;
46881;SDS011;44112;38.408;-122.974;2022-07-29T02:13:57;10.63;;;3.85;;
46881;SDS011;44112;38.408;-122.974;2022-07-29T02:16:25;9.73;;;3.40;;
46881;SDS011;44112;38.408;-122.974;2022-07-29T02:18:57;8.30;;;3.40;;
46881;SDS011;44112;38.408;-122.974;2022-07-29T02:21:26;11.85;;;4.05;;
46881;SDS011;44112;38.408;-122.974;2022-07-29T02:23:56;10.98;;;3.90;;
46881;SDS011;44112;38.408;-122.974;2022-07-29T02:26:26;19.08;;;4.72;;
46881;SDS011;44112;38.408;-122.974;2022-07-29T02:28:55;9.20;;;3.63;;
46881;SDS011;44112;38.408;-122.974;2022-07-29T02:31:24;11.38;;;3.83;;
46881;SDS011;44112;38.408;-122.974;2022-07-29T02:33:54;11.00;;;3.70;;
46881;SDS011;44112;38.408;-122.974;2022-07-29T02:36:21;17.15;;;4.32;;
46881;SDS011;44112;38.408;-122.974;2022-07-29T02:38:50;17.58;;;4.40;;
46881;SDS011;44112;38.408;-122.974;2022-07-29T02:41:20;11.95;;;3.80;;
46881;SDS011;44112;38.408;-122.974;2022-07-29T02:43:57;11.00;;;4.00;;
46881;SDS011;44112;38.408;-122.974;2022-07-29T02:46:31;12.48;;;3.92;;
46881;SDS011;44112;38.408;-122.974;2022-07-29T02:51:43;10.27;;;3.97;;
46881;SDS011;44112;38.408;-122.974;2022-07-29T02:54:26;9.18;;;4.05;;
46881;SDS011;44112;38.408;-122.974;2022-07-29T02:57:19;9.82;;;4.00;;
46881;SDS011;44112;38.408;-122.974;2022-07-29T02:59:50;9.65;;;4.05;;
46881;SDS011;44112;38.408;-122.974;2022-07-29T03:02:18;11.05;;;4.25;;
46881;SDS011;44112;38.408;-122.974;2022-07-29T03:04:46;9.45;;;3.97;;
46881;SDS011;44112;38.408;-122.974;2022-07-29T03:07:15;11.68;;;4.05;;
46881;SDS011;44112;38.408;-122.974;2022-07-29T03:09:46;8.55;;;3.70;;
46881;SDS011;44112;38.408;-122.974;2022-07-29T03:12:13;11.95;;;4.10;;
46881;SDS011;44112;38.408;-122.974;2022-07-29T03:14:42;12.95;;;3.78;;
46881;SDS011;44112;38.408;-122.974;2022-07-29T03:17:11;10.55;;;3.92;;
46881;SDS011;44112;38.408;-122.974;2022-07-29T03:19:38;10.60;;;4.20;;
46881;SDS011;44112;38.408;-122.974;2022-07-29T03:22:06;11.32;;;4.60;;
46881;SDS011;44112;38.408;-122.974;2022-07-29T03:24:34;25.90;;;11.90;;
46881;SDS011;44112;38.408;-122.974;2022-07-29T03:27:02;29.02;;;15.57;;
46881;SDS011;44112;38.408;-122.974;2022-07-29T03:29:30;33.13;;;15.20;;
46881;SDS011;44112;38.408;-122.974;2022-07-29T03:31:58;24.75;;;10.65;;
46881;SDS011;44112;38.408;-122.974;2022-07-29T03:34:24;18.77;;;9.27;;
46881;SDS011;44112;38.408;-122.974;2022-07-29T03:36:50;16.15;;;7.97;;
46881;SDS011;44112;38.408;-122.974;2022-07-29T03:39:21;15.25;;;7.50;;
46881;SDS011;44112;38.408;-122.974;2022-07-29T03:41:51;15.55;;;7.30;;
46881;SDS011;44112;38.408;-122.974;2022-07-29T03:44:22;16.20;;;8.02;;
46881;SDS011;44112;38.408;-122.974;2022-07-29T03:46:50;19.75;;;8.38;;
46881;SDS011;44112;38.408;-122.974;2022-07-29T03:49:17;17.45;;;8.70;;
46881;SDS011;44112;38.408;-122.974;2022-07-29T03:51:45;13.93;;;7.78;;
46881;SDS011;44112;38.408;-122.974;2022-07-29T03:54:12;15.95;;;7.45;;
46881;SDS011;44112;38.408;-122.974;2022-07-29T03:56:42;15.27;;;7.22;;
46881;SDS011;44112;38.408;-122.974;2022-07-29T03:59:13;10.25;;;5.57;;
46881;SDS011;44112;38.408;-122.974;2022-07-29T04:01:40;14.98;;;6.28;;
46881;SDS011;44112;38.408;-122.974;2022-07-29T04:04:09;12.20;;;6.63;;
46881;SDS011;44112;38.408;-122.974;2022-07-29T04:06:38;12.82;;;6.88;;
46881;SDS011;44112;38.408;-122.974;2022-07-29T04:09:09;17.13;;;7.22;;
46881;SDS011;44112;38.408;-122.974;2022-07-29T04:11:36;16.02;;;7.28;;
46881;SDS011;44112;38.408;-122.974;2022-07-29T04:14:07;14.82;;;7.13;;
46881;SDS011;44112;38.408;-122.974;2022-07-29T04:16:33;13.75;;;6.80;;
46881;SDS011;44112;38.408;-122.974;2022-07-29T04:19:00;12.27;;;6.40;;
46881;SDS011;44112;38.408;-122.974;2022-07-29T04:21:27;16.33;;;6.97;;
46881;SDS011;44112;38.408;-122.974;2022-07-29T04:23:54;11.80;;;5.60;;
46881;SDS011;44112;38.408;-122.974;2022-07-29T04:26:21;13.27;;;6.72;;
46881;SDS011;44112;38.408;-122.974;2022-07-29T04:28:48;13.50;;;6.50;;
46881;SDS011;44112;38.408;-122.974;2022-07-29T04:31:16;13.40;;;6.15;;
46881;SDS011;44112;38.408;-122.974;2022-07-29T04:33:42;17.17;;;6.40;;
46881;SDS011;44112;38.408;-122.974;2022-07-29T04:36:09;15.85;;;6.68;;
46881;SDS011;44112;38.408;-122.974;2022-07-29T04:38:36;12.50;;;6.22;;
46881;SDS011;44112;38.408;-122.974;2022-07-29T04:41:03;14.55;;;6.47;;
46881;SDS011;44112;38.408;-122.974;2022-07-29T04:43:32;15.15;;;5.80;;
46881;SDS011;44112;38.408;-122.974;2022-07-29T04:45:59;11.93;;;5.72;;
46881;SDS011;44112;38.408;-122.974;2022-07-29T04:48:27;15.25;;;5.72;;
46881;SDS011;44112;38.408;-122.974;2022-07-29T04:50:53;11.30;;;5.60;;
46881;SDS011;44112;38.408;-122.974;2022-07-29T04:53:20;11.43;;;5.90;;
46881;SDS011;44112;38.408;-122.974;2022-07-29T04:55:46;13.38;;;5.75;;
46881;SDS011;44112;38.408;-122.974;2022-07-29T04:58:14;9.25;;;5.07;;
46881;SDS011;44112;38.408;-122.974;2022-07-29T05:00:40;10.70;;;5.30;;
46881;SDS011;44112;38.408;-122.974;2022-07-29T05:03:07;10.40;;;5.90;;
46881;SDS011;44112;38.408;-122.974;2022-07-29T05:05:33;9.80;;;4.97;;
46881;SDS011;44112;38.408;-122.974;2022-07-29T05:08:00;11.57;;;4.95;;
46881;SDS011;44112;38.408;-122.974;2022-07-29T05:10:27;8.48;;;5.22;;
46881;SDS011;44112;38.408;-122.974;2022-07-29T05:12:54;10.88;;;5.28;;
46881;SDS011;44112;38.408;-122.974;2022-07-29T05:15:20;10.43;;;4.88;;
46881;SDS011;44112;38.408;-122.974;2022-07-29T05:17:47;9.88;;;5.03;;
46881;SDS011;44112;38.408;-122.974;2022-07-29T05:20:13;9.60;;;5.07;;
46881;SDS011;44112;38.408;-122.974;2022-07-29T05:22:40;12.27;;;5.38;;
46881;SDS011;44112;38.408;-122.974;2022-07-29T05:25:07;9.15;;;4.70;;
46881;SDS011;44112;38.408;-122.974;2022-07-29T05:27:35;9.50;;;4.93;;
46881;SDS011;44112;38.408;-122.974;2022-07-29T05:30:02;10.20;;;4.85;;
46881;SDS011;44112;38.408;-122.974;2022-07-29T05:32:29;9.68;;;4.63;;
46881;SDS011;44112;38.408;-122.974;2022-07-29T05:34:56;10.63;;;4.32;;
46881;SDS011;44112;38.408;-122.974;2022-07-29T05:37:23;7.97;;;4.35;;
46881;SDS011;44112;38.408;-122.974;2022-07-29T05:39:49;9.77;;;4.55;;
46881;SDS011;44112;38.408;-122.974;2022-07-29T05:42:16;8.13;;;4.22;;
46881;SDS011;44112;38.408;-122.974;2022-07-29T05:44:43;8.50;;;4.43;;
46881;SDS011;44112;38.408;-122.974;2022-07-29T05:47:10;10.38;;;4.22;;
46881;SDS011;44112;38.408;-122.974;2022-07-29T05:49:36;9.48;;;4.13;;
46881;SDS011;44112;38.408;-122.974;2022-07-29T05:52:04;11.60;;;4.50;;
46881;SDS011;44112;38.408;-122.974;2022-07-29T05:54:30;9.45;;;4.28;;
46881;SDS011;44112;38.408;-122.974;2022-07-29T05:56:58;8.23;;;4.05;;
46881;SDS011;44112;38.408;-122.974;2022-07-29T05:59:24;8.38;;;4.40;;
46881;SDS011;44112;38.408;-122.974;2022-07-29T06:01:51;10.05;;;4.32;;
46881;SDS011;44112;38.408;-122.974;2022-07-29T06:04:18;12.00;;;4.80;;
46881;SDS011;44112;38.408;-122.974;2022-07-29T06:06:45;7.55;;;4.00;;
46881;SDS011;44112;38.408;-122.974;2022-07-29T06:09:13;9.13;;;4.13;;
46881;SDS011;44112;38.408;-122.974;2022-07-29T06:11:40;7.90;;;3.90;;
46881;SDS011;44112;38.408;-122.974;2022-07-29T06:14:06;8.93;;;4.28;;
46881;SDS011;44112;38.408;-122.974;2022-07-29T06:16:33;7.95;;;4.10;;
46881;SDS011;44112;38.408;-122.974;2022-07-29T06:18:59;9.30;;;4.07;;
46881;SDS011;44112;38.408;-122.974;2022-07-29T06:21:27;8.57;;;3.90;;
46881;SDS011;44112;38.408;-122.974;2022-07-29T06:23:53;9.30;;;4.10;;
46881;SDS011;44112;38.408;-122.974;2022-07-29T06:26:20;10.77;;;4.10;;
46881;SDS011;44112;38.408;-122.974;2022-07-29T06:28:48;9.38;;;4.00;;
46881;SDS011;44112;38.408;-122.974;2022-07-29T06:31:14;7.82;;;3.75;;
46881;SDS011;44112;38.408;-122.974;2022-07-29T06:33:42;7.97;;;4.13;;
46881;SDS011;44112;38.408;-122.974;2022-07-29T06:36:08;8.63;;;4.03;;
46881;SDS011;44112;38.408;-122.974;2022-07-29T06:38:36;8.35;;;4.05;;
46881;SDS011;44112;38.408;-122.974;2022-07-29T06:41:03;10.27;;;3.95;;
46881;SDS011;44112;38.408;-122.974;2022-07-29T06:46:03;8.40;;;3.53;;
46881;SDS011;44112;38.408;-122.974;2022-07-29T06:48:32;8.45;;;3.70;;
46881;SDS011;44112;38.408;-122.974;2022-07-29T06:51:00;8.13;;;3.70;;
46881;SDS011;44112;38.408;-122.974;2022-07-29T06:53:27;7.80;;;3.70;;
46881;SDS011;44112;38.408;-122.974;2022-07-29T06:55:53;9.43;;;3.67;;
46881;SDS011;44112;38.408;-122.974;2022-07-29T06:58:20;8.48;;;3.42;;
46881;SDS011;44112;38.408;-122.974;2022-07-29T07:00:47;8.02;;;3.40;;
46881;SDS011;44112;38.408;-122.974;2022-07-29T07:03:16;8.32;;;3.92;;
46881;SDS011;44112;38.408;-122.974;2022-07-29T07:05:43;8.35;;;3.72;;
46881;SDS011;44112;38.408;-122.974;2022-07-29T07:08:10;8.27;;;3.60;;
46881;SDS011;44112;38.408;-122.974;2022-07-29T07:10:37;7.45;;;3.65;;
46881;SDS011;44112;38.408;-122.974;2022-07-29T07:13:05;7.82;;;3.80;;
46881;SDS011;44112;38.408;-122.974;2022-07-29T07:15:31;9.00;;;3.53;;
46881;SDS011;44112;38.408;-122.974;2022-07-29T07:17:59;6.53;;;3.40;;
46881;SDS011;44112;38.408;-122.974;2022-07-29T07:20:26;8.90;;;3.63;;
46881;SDS011;44112;38.408;-122.974;2022-07-29T07:22:52;7.35;;;3.60;;
46881;SDS011;44112;38.408;-122.974;2022-07-29T07:25:19;6.10;;;3.15;;
46881;SDS011;44112;38.408;-122.974;2022-07-29T07:27:47;6.85;;;3.30;;
46881;SDS011;44112;38.408;-122.974;2022-07-29T07:30:15;6.82;;;3.30;;
46881;SDS011;44112;38.408;-122.974;2022-07-29T07:32:42;6.75;;;3.22;;
46881;SDS011;44112;38.408;-122.974;2022-07-29T07:35:09;6.88;;;3.40;;
46881;SDS011;44112;38.408;-122.974;2022-07-29T07:37:37;6.82;;;3.40;;
46881;SDS011;44112;38.408;-122.974;2022-07-29T07:40:06;8.07;;;3.60;;
46881;SDS011;44112;38.408;-122.974;2022-07-29T07:42:35;7.38;;;3.20;;
46881;SDS011;44112;38.408;-122.974;2022-07-29T07:45:01;7.10;;;3.25;;
46881;SDS011;44112;38.408;-122.974;2022-07-29T07:47:29;7.07;;;3.30;;
46881;SDS011;44112;38.408;-122.974;2022-07-29T07:49:55;7.47;;;3.60;;
46881;SDS011;44112;38.408;-122.974;2022-07-29T07:52:22;6.50;;;3.20;;
46881;SDS011;44112;38.408;-122.974;2022-07-29T07:54:48;7.35;;;3.20;;
46881;SDS011;44112;38.408;-122.974;2022-07-29T07:57:16;7.32;;;3.42;;
46881;SDS011;44112;38.408;-122.974;2022-07-29T07:59:43;6.47;;;3.00;;
46881;SDS011;44112;38.408;-122.974;2022-07-29T08:02:10;7.03;;;3.42;;
46881;SDS011;44112;38.408;-122.974;2022-07-29T08:04:39;6.90;;;3.42;;
46881;SDS011;44112;38.408;-122.974;2022-07-29T08:07:07;5.82;;;3.03;;
46881;SDS011;44112;38.408;-122.974;2022-07-29T08:09:35;7.45;;;3.47;;
46881;SDS011;44112;38.408;-122.974;2022-07-29T08:12:02;7.55;;;3.10;;
46881;SDS011;44112;38.408;-122.974;2022-07-29T08:14:29;7.57;;;3.58;;
46881;SDS011;44112;38.408;-122.974;2022-07-29T08:16:57;6.60;;;2.97;;
46881;SDS011;44112;38.408;-122.974;2022-07-29T08:19:24;6.80;;;3.35;;
46881;SDS011;44112;38.408;-122.974;2022-07-29T08:21:51;7.18;;;3.30;;
46881;SDS011;44112;38.408;-122.974;2022-07-29T08:24:18;7.28;;;3.10;;
46881;SDS011;44112;38.408;-122.974;2022-07-29T08:27:04;6.45;;;3.03;;
46881;SDS011;44112;38.408;-122.974;2022-07-29T08:29:31;6.93;;;3.40;;
46881;SDS011;44112;38.408;-122.974;2022-07-29T08:31:58;6.57;;;3.10;;
46881;SDS011;44112;38.408;-122.974;2022-07-29T08:34:24;6.60;;;3.00;;
46881;SDS011;44112;38.408;-122.974;2022-07-29T08:36:51;7.15;;;3.35;;
46881;SDS011;44112;38.408;-122.974;2022-07-29T08:39:18;7.30;;;3.10;;
46881;SDS011;44112;38.408;-122.974;2022-07-29T08:41:46;7.03;;;3.28;;
46881;SDS011;44112;38.408;-122.974;2022-07-29T08:44:13;6.38;;;2.97;;
46881;SDS011;44112;38.408;-122.974;2022-07-29T08:46:42;6.88;;;3.00;;
46881;SDS011;44112;38.408;-122.974;2022-07-29T08:49:09;5.88;;;3.08;;
46881;SDS011;44112;38.408;-122.974;2022-07-29T08:51:36;7.28;;;3.40;;
46881;SDS011;44112;38.408;-122.974;2022-07-29T08:54:04;6.68;;;3.00;;
46881;SDS011;44112;38.408;-122.974;2022-07-29T08:56:31;6.55;;;3.20;;
46881;SDS011;44112;38.408;-122.974;2022-07-29T08:58:59;6.18;;;3.05;;
46881;SDS011;44112;38.408;-122.974;2022-07-29T09:01:33;7.22;;;3.10;;
46881;SDS011;44112;38.408;-122.974;2022-07-29T09:04:05;7.35;;;3.33;;
46881;SDS011;44112;38.408;-122.974;2022-07-29T09:06:36;6.40;;;2.95;;
46881;SDS011;44112;38.408;-122.974;2022-07-29T09:09:07;6.72;;;3.20;;
46881;SDS011;44112;38.408;-122.974;2022-07-29T09:11:34;6.93;;;3.28;;
46881;SDS011;44112;38.408;-122.974;2022-07-29T09:14:02;8.75;;;3.10;;
46881;SDS011;44112;38.408;-122.974;2022-07-29T09:17:13;8.55;;;3.33;;
46881;SDS011;44112;38.408;-122.974;2022-07-29T09:19:21;11.40;;;3.63;;
46881;SDS011;44112;38.408;-122.974;2022-07-29T09:21:50;8.10;;;3.50;;
46881;SDS011;44112;38.408;-122.974;2022-07-29T09:24:23;9.85;;;3.65;;
46881;SDS011;44112;38.408;-122.974;2022-07-29T09:26:53;11.45;;;3.85;;
46881;SDS011;44112;38.408;-122.974;2022-07-29T09:29:21;7.70;;;3.50;;
46881;SDS011;44112;38.408;-122.974;2022-07-29T09:31:53;10.13;;;3.40;;
46881;SDS011;44112;38.408;-122.974;2022-07-29T09:34:24;11.73;;;3.47;;
46881;SDS011;44112;38.408;-122.974;2022-07-29T09:36:54;9.48;;;3.80;;
46881;SDS011;44112;38.408;-122.974;2022-07-29T09:39:27;8.70;;;3.67;;
46881;SDS011;44112;38.408;-122.974;2022-07-29T09:41:58;8.18;;;3.40;;
46881;SDS011;44112;38.408;-122.974;2022-07-29T09:44:27;9.02;;;3.38;;
46881;SDS011;44112;38.408;-122.974;2022-07-29T09:47:11;7.05;;;3.35;;
46881;SDS011;44112;38.408;-122.974;2022-07-29T09:49:54;10.60;;;3.35;;
46881;SDS011;44112;38.408;-122.974;2022-07-29T09:52:28;9.77;;;3.13;;
46881;SDS011;44112;38.408;-122.974;2022-07-29T09:55:08;8.43;;;3.30;;
46881;SDS011;44112;38.408;-122.974;2022-07-29T09:57:37;6.22;;;2.80;;
46881;SDS011;44112;38.408;-122.974;2022-07-29T10:00:05;6.63;;;3.13;;
46881;SDS011;44112;38.408;-122.974;2022-07-29T10:02:34;7.90;;;3.13;;
46881;SDS011;44112;38.408;-122.974;2022-07-29T10:05:04;6.75;;;2.90;;
46881;SDS011;44112;38.408;-122.974;2022-07-29T10:07:48;7.25;;;3.25;;
46881;SDS011;44112;38.408;-122.974;2022-07-29T10:12:56;7.50;;;3.10;;
46881;SDS011;44112;38.408;-122.974;2022-07-29T10:15:24;7.50;;;3.33;;
46881;SDS011;44112;38.408;-122.974;2022-07-29T10:17:54;7.38;;;3.10;;
46881;SDS011;44112;38.408;-122.974;2022-07-29T10:20:23;8.35;;;3.35;;
46881;SDS011;44112;38.408;-122.974;2022-07-29T10:22:52;6.57;;;2.80;;
46881;SDS011;44112;38.408;-122.974;2022-07-29T10:25:19;5.43;;;2.80;;
46881;SDS011;44112;38.408;-122.974;2022-07-29T10:27:47;6.20;;;2.85;;
46881;SDS011;44112;38.408;-122.974;2022-07-29T10:30:16;7.35;;;3.15;;
46881;SDS011;44112;38.408;-122.974;2022-07-29T10:38:30;5.75;;;2.90;;
46881;SDS011;44112;38.408;-122.974;2022-07-29T10:44:06;6.10;;;2.63;;
46881;SDS011;44112;38.408;-122.974;2022-07-29T10:46:38;6.85;;;3.05;;
46881;SDS011;44112;38.408;-122.974;2022-07-29T10:49:10;6.07;;;3.00;;
46881;SDS011;44112;38.408;-122.974;2022-07-29T10:57:19;5.15;;;2.75;;
46881;SDS011;44112;38.408;-122.974;2022-07-29T11:05:01;6.07;;;2.90;;
46881;SDS011;44112;38.408;-122.974;2022-07-29T11:07:36;7.47;;;2.88;;
46881;SDS011;44112;38.408;-122.974;2022-07-29T11:15:08;4.93;;;2.50;;
46881;SDS011;44112;38.408;-122.974;2022-07-29T11:26:16;5.20;;;2.70;;
46881;SDS011;44112;38.408;-122.974;2022-07-29T11:28:54;6.40;;;2.80;;
46881;SDS011;44112;38.408;-122.974;2022-07-29T11:31:33;6.93;;;2.55;;
46881;SDS011;44112;38.408;-122.974;2022-07-29T11:39:39;6.03;;;2.92;;
46881;SDS011;44112;38.408;-122.974;2022-07-29T11:45:04;6.45;;;2.65;;
46881;SDS011;44112;38.408;-122.974;2022-07-29T11:47:35;5.53;;;2.55;;
46881;SDS011;44112;38.408;-122.974;2022-07-29T11:50:04;5.50;;;2.60;;
46881;SDS011;44112;38.408;-122.974;2022-07-29T11:52:37;5.10;;;2.80;;
46881;SDS011;44112;38.408;-122.974;2022-07-29T11:55:20;6.40;;;2.67;;
46881;SDS011;44112;38.408;-122.974;2022-07-29T11:57:50;5.93;;;2.60;;
46881;SDS011;44112;38.408;-122.974;2022-07-29T12:00:39;5.00;;;2.50;;
46881;SDS011;44112;38.408;-122.974;2022-07-29T12:03:09;4.85;;;2.42;;
46881;SDS011;44112;38.408;-122.974;2022-07-29T12:05:41;4.80;;;2.40;;
46881;SDS011;44112;38.408;-122.974;2022-07-29T12:08:11;5.37;;;2.87;;
46881;SDS011;44112;38.408;-122.974;2022-07-29T12:10:47;4.90;;;2.50;;
46881;SDS011;44112;38.408;-122.974;2022-07-29T12:13:16;5.10;;;2.35;;
46881;SDS011;44112;38.408;-122.974;2022-07-29T12:15:56;5.07;;;2.47;;
46881;SDS011;44112;38.408;-122.974;2022-07-29T12:18:23;5.05;;;2.53;;
46881;SDS011;44112;38.408;-122.974;2022-07-29T12:20:57;5.20;;;2.42;;
46881;SDS011;44112;38.408;-122.974;2022-07-29T12:25:51;4.78;;;2.47;;
46881;SDS011;44112;38.408;-122.974;2022-07-29T12:28:17;4.40;;;2.28;;
46881;SDS011;44112;38.408;-122.974;2022-07-29T12:30:46;5.00;;;2.42;;
46881;SDS011;44112;38.408;-122.974;2022-07-29T12:35:54;4.30;;;2.30;;
46881;SDS011;44112;38.408;-122.974;2022-07-29T12:38:23;4.18;;;2.17;;
46881;SDS011;44112;38.408;-122.974;2022-07-29T12:40:51;4.55;;;2.53;;
46881;SDS011;44112;38.408;-122.974;2022-07-29T12:43:22;5.13;;;2.53;;
46881;SDS011;44112;38.408;-122.974;2022-07-29T12:45:51;4.22;;;2.20;;
46881;SDS011;44112;38.408;-122.974;2022-07-29T12:48:39;5.03;;;2.53;;
46881;SDS011;44112;38.408;-122.974;2022-07-29T12:51:07;4.28;;;2.33;;
46881;SDS011;44112;38.408;-122.974;2022-07-29T12:53:39;4.43;;;2.38;;
46881;SDS011;44112;38.408;-122.974;2022-07-29T12:56:06;3.58;;;2.15;;
46881;SDS011;44112;38.408;-122.974;2022-07-29T12:58:41;5.07;;;2.45;;
46881;SDS011;44112;38.408;-122.974;2022-07-29T13:01:11;4.90;;;2.60;;
46881;SDS011;44112;38.408;-122.974;2022-07-29T13:09:11;3.47;;;2.08;;
46881;SDS011;44112;38.408;-122.974;2022-07-29T13:11:40;4.30;;;2.17;;
46881;SDS011;44112;38.408;-122.974;2022-07-29T13:14:31;5.07;;;2.33;;
46881;SDS011;44112;38.408;-122.974;2022-07-29T13:19:33;4.00;;;2.20;;
46881;SDS011;44112;38.408;-122.974;2022-07-29T13:22:23;4.80;;;2.40;;
46881;SDS011;44112;38.408;-122.974;2022-07-29T13:24:50;4.10;;;2.20;;
46881;SDS011;44112;38.408;-122.974;2022-07-29T13:27:19;2.65;;;1.70;;
46881;SDS011;44112;38.408;-122.974;2022-07-29T13:29:48;3.72;;;2.17;;
46881;SDS011;44112;38.408;-122.974;2022-07-29T13:32:17;4.38;;;2.20;;
46881;SDS011;44112;38.408;-122.974;2022-07-29T13:34:45;4.28;;;2.35;;
46881;SDS011;44112;38.408;-122.974;2022-07-29T13:37:12;4.15;;;2.38;;
46881;SDS011;44112;38.408;-122.974;2022-07-29T13:39:40;3.42;;;2.00;;
46881;SDS011;44112;38.408;-122.974;2022-07-29T13:42:06;3.92;;;2.10;;
46881;SDS011;44112;38.408;-122.974;2022-07-29T13:44:34;3.90;;;2.08;;
46881;SDS011;44112;38.408;-122.974;2022-07-29T13:47:01;4.13;;;2.10;;
46881;SDS011;44112;38.408;-122.974;2022-07-29T13:49:28;3.70;;;2.00;;
46881;SDS011;44112;38.408;-122.974;2022-07-29T13:51:55;3.13;;;2.00;;
46881;SDS011;44112;38.408;-122.974;2022-07-29T13:54:21;2.72;;;1.77;;
46881;SDS011;44112;38.408;-122.974;2022-07-29T13:56:49;2.85;;;1.90;;
46881;SDS011;44112;38.408;-122.974;2022-07-29T13:59:16;1.98;;;1.55;;
46881;SDS011;44112;38.408;-122.974;2022-07-29T14:01:43;2.83;;;1.83;;
46881;SDS011;44112;38.408;-122.974;2022-07-29T14:04:10;4.05;;;2.10;;
46881;SDS011;44112;38.408;-122.974;2022-07-29T14:06:37;3.28;;;2.00;;
46881;SDS011;44112;38.408;-122.974;2022-07-29T14:09:04;3.15;;;2.10;;
46881;SDS011;44112;38.408;-122.974;2022-07-29T14:11:33;5.63;;;2.10;;
46881;SDS011;44112;38.408;-122.974;2022-07-29T14:14:03;2.58;;;1.77;;
46881;SDS011;44112;38.408;-122.974;2022-07-29T14:16:30;2.70;;;1.77;;
46881;SDS011;44112;38.408;-122.974;2022-07-29T14:18:56;3.58;;;2.03;;
46881;SDS011;44112;38.408;-122.974;2022-07-29T14:21:24;2.38;;;1.52;;
46881;SDS011;44112;38.408;-122.974;2022-07-29T14:23:51;3.65;;;1.90;;
46881;SDS011;44112;38.408;-122.974;2022-07-29T14:26:20;3.00;;;1.90;;
46881;SDS011;44112;38.408;-122.974;2022-07-29T14:28:47;2.53;;;1.67;;
46881;SDS011;44112;38.408;-122.974;2022-07-29T14:31:14;3.33;;;1.90;;
46881;SDS011;44112;38.408;-122.974;2022-07-29T14:33:42;3.10;;;1.90;;
46881;SDS011;44112;38.408;-122.974;2022-07-29T14:36:09;2.25;;;1.60;;
46881;SDS011;44112;38.408;-122.974;2022-07-29T14:38:36;2.63;;;1.95;;
46881;SDS011;44112;38.408;-122.974;2022-07-29T14:41:05;3.30;;;1.73;;
46881;SDS011;44112;38.408;-122.974;2022-07-29T14:43:33;2.40;;;1.75;;
46881;SDS011;44112;38.408;-122.974;2022-07-29T14:46:00;3.42;;;1.90;;
46881;SDS011;44112;38.408;-122.974;2022-07-29T14:48:27;3.10;;;1.80;;
46881;SDS011;44112;38.408;-122.974;2022-07-29T14:50:54;2.35;;;1.80;;
46881;SDS011;44112;38.408;-122.974;2022-07-29T14:53:21;3.83;;;1.80;;
46881;SDS011;44112;38.408;-122.974;2022-07-29T14:55:48;3.13;;;1.85;;
46881;SDS011;44112;38.408;-122.974;2022-07-29T14:58:15;3.05;;;2.00;;
46881;SDS011;44112;38.408;-122.974;2022-07-29T15:00:41;3.05;;;1.90;;
46881;SDS011;44112;38.408;-122.974;2022-07-29T15:03:09;2.90;;;1.85;;
46881;SDS011;44112;38.408;-122.974;2022-07-29T15:05:36;2.75;;;1.67;;
46881;SDS011;44112;38.408;-122.974;2022-07-29T15:08:04;2.17;;;1.50;;
46881;SDS011;44112;38.408;-122.974;2022-07-29T15:10:30;2.88;;;1.90;;
46881;SDS011;44112;38.408;-122.974;2022-07-29T15:12:57;2.65;;;1.70;;
46881;SDS011;44112;38.408;-122.974;2022-07-29T15:15:24;3.28;;;2.00;;
46881;SDS011;44112;38.408;-122.974;2022-07-29T15:17:51;2.63;;;1.73;;
46881;SDS011;44112;38.408;-122.974;2022-07-29T15:20:18;2.92;;;1.70;;
46881;SDS011;44112;38.408;-122.974;2022-07-29T15:22:44;2.30;;;1.70;;
46881;SDS011;44112;38.408;-122.974;2022-07-29T15:25:11;2.95;;;2.00;;
46881;SDS011;44112;38.408;-122.974;2022-07-29T15:27:38;2.03;;;1.73;;
46881;SDS011;44112;38.408;-122.974;2022-07-29T15:30:04;2.92;;;2.00;;
46881;SDS011;44112;38.408;-122.974;2022-07-29T15:32:32;2.35;;;1.67;;
46881;SDS011;44112;38.408;-122.974;2022-07-29T15:34:59;2.65;;;1.90;;
46881;SDS011;44112;38.408;-122.974;2022-07-29T15:37:26;2.08;;;1.58;;